createdAt,value
2023-03-07T00:00:30.417Z,44.65
2023-03-07T00:02:58.545Z,44.30
2023-03-07T00:05:26.794Z,44.17
2023-03-07T00:07:54.876Z,44.10
2023-03-07T00:10:22.967Z,43.33
2023-03-07T00:12:51.068Z,43.72
2023-03-07T00:15:19.364Z,43.67
2023-03-07T00:17:48.860Z,42.42
2023-03-07T00:20:17.048Z,42.30
2023-03-07T00:22:46.905Z,40.90
2023-03-07T00:25:15.116Z,41.28
2023-03-07T00:27:43.200Z,40.72
2023-03-07T00:30:12.527Z,40.90
2023-03-07T00:32:40.790Z,41.28
2023-03-07T00:35:10.533Z,40.35
2023-03-07T00:37:38.685Z,38.35
2023-03-07T00:40:08.540Z,38.42
2023-03-07T00:42:36.665Z,37.97
2023-03-07T00:45:05.109Z,37.90
2023-03-07T00:47:33.222Z,37.97
2023-03-07T00:50:01.444Z,36.63
2023-03-07T00:52:30.957Z,37.33
2023-03-07T00:54:59.155Z,35.53
2023-03-07T00:57:27.461Z,36.85
2023-03-07T00:59:55.601Z,36.40
2023-03-07T01:02:23.877Z,36.60
2023-03-07T01:04:52.004Z,35.88
2023-03-07T01:07:20.087Z,35.45
2023-03-07T01:09:53.334Z,35.58
2023-03-07T01:12:21.572Z,34.20
2023-03-07T01:14:51.636Z,33.88
2023-03-07T01:17:19.926Z,33.10
2023-03-07T01:19:48.017Z,33.60
2023-03-07T01:22:16.344Z,32.80
2023-03-07T01:24:44.436Z,33.33
2023-03-07T01:27:14.039Z,31.33
2023-03-07T01:29:42.200Z,31.40
2023-03-07T01:32:10.467Z,31.35
2023-03-07T01:34:38.737Z,31.23
2023-03-07T01:37:06.921Z,32.28
2023-03-07T01:39:35.184Z,30.40
2023-03-07T01:42:07.314Z,29.92
2023-03-07T01:45:01.394Z,29.40
2023-03-07T01:47:39.132Z,29.20
2023-03-07T01:50:09.062Z,30.75
2023-03-07T01:52:38.020Z,30.33
2023-03-07T01:55:12.319Z,28.80
2023-03-07T01:57:42.553Z,28.83
2023-03-07T02:00:14.407Z,28.85
2023-03-07T02:02:43.332Z,28.55
2023-03-07T02:05:15.058Z,27.77
2023-03-07T02:07:46.035Z,27.40
2023-03-07T02:10:15.197Z,27.75
2023-03-07T02:12:43.391Z,26.67
2023-03-07T02:15:14.518Z,26.88
2023-03-07T02:17:42.882Z,26.38
2023-03-07T02:20:23.607Z,26.27
2023-03-07T02:22:51.771Z,26.92
2023-03-07T02:25:21.274Z,25.70
2023-03-07T02:27:50.896Z,25.65
2023-03-07T02:30:19.232Z,25.23
2023-03-07T02:32:47.847Z,25.58
2023-03-07T02:35:17.314Z,25.27
2023-03-07T02:37:47.631Z,24.70
2023-03-07T02:40:19.373Z,23.83
2023-03-07T02:42:47.989Z,23.98
2023-03-07T02:45:18.989Z,24.27
2023-03-07T02:47:47.436Z,23.02
2023-03-07T02:50:18.225Z,23.35
2023-03-07T02:52:51.182Z,24.30
2023-03-07T02:55:19.646Z,22.98
2023-03-07T02:57:53.826Z,22.73
2023-03-07T03:00:24.192Z,22.63
2023-03-07T03:02:52.865Z,23.40
2023-03-07T03:05:21.584Z,23.42
2023-03-07T03:07:52.909Z,21.90
2023-03-07T03:10:21.105Z,21.95
2023-03-07T03:12:49.201Z,21.85
2023-03-07T03:15:17.912Z,22.13
2023-03-07T03:17:48.437Z,21.65
2023-03-07T03:20:17.110Z,21.50
2023-03-07T03:22:45.218Z,21.17
2023-03-07T03:25:14.945Z,21.63
2023-03-07T03:27:45.031Z,20.63
2023-03-07T03:30:14.151Z,20.98
2023-03-07T03:32:43.752Z,20.55
2023-03-07T03:35:16.139Z,20.67
2023-03-07T03:37:45.051Z,19.55
2023-03-07T03:40:17.406Z,20.00
2023-03-07T03:42:46.856Z,19.98
2023-03-07T03:45:17.324Z,20.10
2023-03-07T03:47:45.478Z,19.42
2023-03-07T03:50:15.400Z,19.73
2023-03-07T03:52:45.370Z,19.58
2023-03-07T03:55:13.938Z,18.80
2023-03-07T03:57:42.191Z,19.30
2023-03-07T04:00:14.478Z,18.85
2023-03-07T04:02:42.971Z,18.67
2023-03-07T04:05:17.084Z,18.30
2023-03-07T04:07:45.251Z,18.75
2023-03-07T04:10:13.417Z,18.15
2023-03-07T04:12:41.597Z,19.25
2023-03-07T04:15:10.338Z,17.85
2023-03-07T04:17:39.579Z,17.50
2023-03-07T04:20:14.268Z,17.25
2023-03-07T04:22:44.012Z,18.13
2023-03-07T04:25:12.857Z,17.33
2023-03-07T04:27:41.021Z,16.88
2023-03-07T04:30:10.952Z,17.55
2023-03-07T04:32:39.845Z,16.95
2023-03-07T04:35:08.472Z,16.75
2023-03-07T04:37:36.562Z,17.17
2023-03-07T04:40:06.981Z,17.65
2023-03-07T04:42:36.064Z,17.33
2023-03-07T04:45:04.924Z,16.25
2023-03-07T04:47:33.143Z,16.70
2023-03-07T04:50:01.287Z,16.13
2023-03-07T04:52:30.787Z,16.23
2023-03-07T04:54:58.916Z,16.10
2023-03-07T04:57:28.495Z,16.13
2023-03-07T04:59:56.876Z,15.70
2023-03-07T05:02:25.106Z,16.23
2023-03-07T05:04:54.141Z,16.85
2023-03-07T05:07:22.991Z,15.70
2023-03-07T05:09:52.322Z,15.30
2023-03-07T05:12:21.079Z,15.95
2023-03-07T05:14:50.554Z,15.82
2023-03-07T05:17:18.673Z,14.80
2023-03-07T05:19:46.952Z,14.98
2023-03-07T05:22:15.336Z,14.52
2023-03-07T05:24:44.760Z,15.60
2023-03-07T05:27:12.971Z,14.40
2023-03-07T05:29:41.060Z,14.95
2023-03-07T05:32:11.370Z,14.13
2023-03-07T05:34:40.484Z,15.38
2023-03-07T05:37:09.701Z,14.90
2023-03-07T05:39:38.217Z,13.88
2023-03-07T05:42:06.689Z,14.07
2023-03-07T05:44:36.038Z,13.52
2023-03-07T05:47:05.840Z,13.65
2023-03-07T05:49:36.077Z,13.90
2023-03-07T05:52:04.535Z,13.48
2023-03-07T05:54:32.759Z,14.07
2023-03-07T05:57:01.061Z,13.00
2023-03-07T05:59:29.136Z,14.20
2023-03-07T06:01:57.329Z,13.10
2023-03-07T06:04:25.547Z,13.27
2023-03-07T06:06:55.149Z,13.35
2023-03-07T06:09:23.662Z,13.68
2023-03-07T06:11:52.371Z,13.25
2023-03-07T06:14:20.976Z,13.20
2023-03-07T06:16:49.072Z,13.07
2023-03-07T06:19:17.467Z,13.23
2023-03-07T06:21:45.742Z,12.65
2023-03-07T06:24:15.412Z,12.32
2023-03-07T06:26:44.576Z,12.45
2023-03-07T06:29:13.339Z,13.02
2023-03-07T06:31:41.741Z,12.52
2023-03-07T06:34:09.952Z,11.95
2023-03-07T06:36:38.194Z,12.52
2023-03-07T06:39:06.336Z,11.90
2023-03-07T06:41:37.402Z,12.60
2023-03-07T06:44:06.600Z,12.38
2023-03-07T06:46:35.439Z,11.98
2023-03-07T06:49:09.065Z,12.55
2023-03-07T06:51:38.102Z,11.52
2023-03-07T06:54:06.971Z,11.80
2023-03-07T06:56:36.999Z,12.07
2023-03-07T06:59:05.305Z,11.93
2023-03-07T07:01:35.605Z,11.80
2023-03-07T07:04:04.207Z,11.52
2023-03-07T07:06:32.402Z,11.70
2023-03-07T07:09:00.615Z,11.60
2023-03-07T07:11:33.765Z,11.95
2023-03-07T07:14:04.689Z,11.07
2023-03-07T07:16:36.307Z,11.95
2023-03-07T07:19:04.747Z,11.43
2023-03-07T07:21:33.213Z,10.57
2023-03-07T07:24:01.711Z,11.70
2023-03-07T07:26:30.192Z,11.38
2023-03-07T07:29:00.520Z,11.48
2023-03-07T07:31:30.339Z,11.13
2023-03-07T07:33:58.763Z,11.68
2023-03-07T07:36:29.237Z,11.63
2023-03-07T07:38:57.445Z,12.45
2023-03-07T07:41:25.790Z,14.30
2023-03-07T07:43:56.535Z,13.55
2023-03-07T07:46:35.460Z,14.02
2023-03-07T07:49:04.581Z,20.27
2023-03-07T07:51:33.872Z,20.20
2023-03-07T07:54:02.093Z,23.30
2023-03-07T07:56:30.242Z,30.70
2023-03-07T07:58:58.331Z,32.55
2023-03-07T08:01:26.469Z,59.42
2023-03-07T08:03:55.936Z,49.03
2023-03-07T08:06:25.067Z,43.53
2023-03-07T08:08:53.251Z,53.40
2023-03-07T08:11:21.637Z,51.83
2023-03-07T08:13:49.736Z,51.92
2023-03-07T08:16:18.596Z,50.42
2023-03-07T08:18:49.574Z,49.40
2023-03-07T08:21:19.117Z,49.30
2023-03-07T08:23:47.206Z,52.30
2023-03-07T08:26:15.304Z,49.88
2023-03-07T08:28:43.517Z,51.00
2023-03-07T08:31:12.518Z,55.00
2023-03-07T08:33:40.629Z,54.08
2023-03-07T08:36:09.273Z,50.33
2023-03-07T08:38:38.758Z,46.47
2023-03-07T08:41:08.166Z,44.28
2023-03-07T08:43:37.417Z,39.20
2023-03-07T08:46:05.769Z,39.58
2023-03-07T08:48:33.918Z,38.85
2023-03-07T08:51:05.846Z,38.92
2023-03-07T08:53:34.029Z,38.28
2023-03-07T08:56:07.205Z,36.75
2023-03-07T08:58:35.419Z,38.13
2023-03-07T09:01:03.705Z,38.22
2023-03-07T09:03:31.873Z,40.33
2023-03-07T09:05:59.953Z,44.38
2023-03-07T09:08:28.118Z,40.10
2023-03-07T09:10:56.968Z,43.67
2023-03-07T09:13:26.513Z,45.85
2023-03-07T09:15:54.627Z,49.53
2023-03-07T09:18:23.633Z,51.42
2023-03-07T09:20:51.736Z,49.03
2023-03-07T09:23:19.860Z,47.75
2023-03-07T09:25:47.932Z,46.83
2023-03-07T09:28:16.021Z,47.25
2023-03-07T09:30:45.452Z,47.92
2023-03-07T09:33:13.548Z,46.42
2023-03-07T09:35:41.636Z,46.65
2023-03-07T09:38:10.719Z,47.75
2023-03-07T09:40:39.250Z,48.03
2023-03-07T09:43:10.390Z,47.75
2023-03-07T09:45:47.909Z,50.67
2023-03-07T09:48:56.108Z,46.10
2023-03-07T09:51:26.420Z,47.70
2023-03-07T09:53:57.105Z,46.83
2023-03-07T09:56:26.338Z,47.50
2023-03-07T09:58:59.265Z,48.67
2023-03-07T10:01:30.256Z,47.20
2023-03-07T10:04:01.353Z,49.35
2023-03-07T10:06:31.677Z,47.38
2023-03-07T10:08:59.787Z,45.80
2023-03-07T10:11:32.480Z,40.92
2023-03-07T10:14:19.374Z,27.73
2023-03-07T10:16:50.818Z,21.38
2023-03-07T10:19:23.500Z,22.13
2023-03-07T10:21:54.242Z,26.25
2023-03-07T10:24:33.723Z,26.17
2023-03-07T10:27:04.389Z,25.40
2023-03-07T10:29:36.238Z,26.33
2023-03-07T10:32:14.034Z,27.40
2023-03-07T10:34:42.144Z,30.92
2023-03-07T10:37:13.922Z,32.85
2023-03-07T10:39:43.662Z,35.75
2023-03-07T10:42:12.317Z,36.75
2023-03-07T10:44:40.583Z,37.58
2023-03-07T10:47:11.270Z,37.88
2023-03-07T10:49:41.752Z,38.65
2023-03-07T10:52:17.605Z,37.60
2023-03-07T10:54:45.754Z,38.30
2023-03-07T10:57:14.860Z,39.45
2023-03-07T10:59:44.894Z,39.60
2023-03-07T11:02:40.376Z,38.30
2023-03-07T11:05:21.729Z,39.53
2023-03-07T11:07:49.932Z,38.15
2023-03-07T11:10:31.161Z,39.22
2023-03-07T11:12:59.269Z,39.35
2023-03-07T11:15:27.681Z,40.13
2023-03-07T11:17:57.179Z,42.25
2023-03-07T11:20:28.076Z,43.10
2023-03-07T11:23:14.712Z,46.50
2023-03-07T11:25:42.853Z,41.90
2023-03-07T11:28:26.292Z,44.42
2023-03-07T11:30:54.976Z,43.95
2023-03-07T11:33:26.138Z,43.80
2023-03-07T11:36:00.255Z,44.25
2023-03-07T11:38:42.818Z,45.70
2023-03-07T11:41:12.565Z,46.70
2023-03-07T11:43:46.315Z,47.55
2023-03-07T11:46:17.207Z,46.88
2023-03-07T11:48:53.444Z,47.90
2023-03-07T11:51:31.980Z,48.38
2023-03-07T11:54:04.792Z,47.75
2023-03-07T11:56:34.671Z,48.17
2023-03-07T11:59:45.631Z,48.05
2023-03-07T12:02:35.148Z,46.50
2023-03-07T12:05:11.220Z,46.60
2023-03-07T12:07:49.108Z,45.90
2023-03-07T12:10:38.231Z,46.38
2023-03-07T12:13:12.501Z,46.85
2023-03-07T12:15:41.763Z,46.42
2023-03-07T12:18:24.241Z,46.85
2023-03-07T12:20:57.185Z,45.47
2023-03-07T12:23:26.766Z,46.95
2023-03-07T12:25:55.737Z,43.72
2023-03-07T12:28:25.400Z,44.47
2023-03-07T12:31:00.615Z,45.15
2023-03-07T12:33:36.495Z,44.70
2023-03-07T12:36:07.863Z,45.00
2023-03-07T12:38:38.473Z,44.95
2023-03-07T12:41:12.524Z,44.55
2023-03-07T12:43:41.811Z,46.75
2023-03-07T12:46:13.022Z,46.75
2023-03-07T12:48:43.917Z,45.42
2023-03-07T12:51:18.818Z,45.97
2023-03-07T12:53:49.165Z,45.38
2023-03-07T12:56:19.722Z,45.65
2023-03-07T12:58:49.003Z,44.38
2023-03-07T13:01:18.879Z,45.00
2023-03-07T13:03:50.854Z,45.38
2023-03-07T13:06:21.059Z,42.65
2023-03-07T13:08:50.026Z,45.72
2023-03-07T13:11:19.617Z,48.13
2023-03-07T13:13:53.323Z,45.63
2023-03-07T13:16:44.115Z,43.10
2023-03-07T13:19:49.339Z,43.10
2023-03-07T13:22:55.008Z,46.17
2023-03-07T13:25:59.059Z,42.00
2023-03-07T13:28:54.114Z,43.53
2023-03-07T13:31:45.938Z,41.70
2023-03-07T13:34:53.167Z,40.50
2023-03-07T13:37:51.980Z,40.83
2023-03-07T13:40:39.781Z,40.83
2023-03-07T13:43:59.777Z,39.15
2023-03-07T13:46:51.848Z,37.42
2023-03-07T13:49:47.689Z,37.28
2023-03-07T13:52:36.655Z,37.58
2023-03-07T13:55:06.193Z,35.88
2023-03-07T13:57:39.916Z,36.15
2023-03-07T14:00:23.708Z,36.70
2023-03-07T14:02:53.454Z,35.75
2023-03-07T14:05:21.583Z,35.67
2023-03-07T14:07:51.678Z,33.50
2023-03-07T14:10:23.572Z,34.33
2023-03-07T14:13:26.428Z,34.13
2023-03-07T14:16:12.597Z,32.05
2023-03-07T14:18:49.673Z,32.72
2023-03-07T14:21:22.879Z,32.75
2023-03-07T14:24:13.072Z,32.38
2023-03-07T14:26:42.598Z,31.08
2023-03-07T14:29:16.918Z,30.38
2023-03-07T14:31:46.967Z,30.83
2023-03-07T14:34:19.664Z,30.55
2023-03-07T14:36:48.228Z,30.52
2023-03-07T14:39:16.356Z,30.10
2023-03-07T14:41:47.359Z,29.38
2023-03-07T14:44:33.118Z,28.95
2023-03-07T14:47:08.531Z,28.42
2023-03-07T14:49:38.845Z,28.67
2023-03-07T14:52:06.984Z,30.58
2023-03-07T14:54:35.603Z,31.17
2023-03-07T14:57:04.184Z,29.40
2023-03-07T14:59:32.262Z,29.10
2023-03-07T15:02:00.515Z,28.65
2023-03-07T15:04:30.669Z,28.90
2023-03-07T15:06:59.549Z,28.85
2023-03-07T15:09:27.680Z,29.08
2023-03-07T15:11:59.445Z,28.48
2023-03-07T15:14:33.532Z,27.60
2023-03-07T15:17:03.284Z,27.30
2023-03-07T15:19:34.185Z,28.45
2023-03-07T15:22:03.172Z,28.13
2023-03-07T15:24:33.504Z,26.55
2023-03-07T15:27:01.608Z,27.52
2023-03-07T15:29:30.720Z,27.33
2023-03-07T15:31:59.823Z,26.30
2023-03-07T15:34:28.975Z,26.80
2023-03-07T15:37:22.557Z,25.90
2023-03-07T15:39:57.237Z,25.85
2023-03-07T15:42:25.312Z,26.10
2023-03-07T15:44:56.826Z,26.20
2023-03-07T15:47:25.357Z,26.10
2023-03-07T15:49:55.214Z,65.43
2023-03-07T15:52:28.571Z,84.93
2023-03-07T15:54:57.400Z,62.70
2023-03-07T15:57:26.287Z,80.63
2023-03-07T15:59:57.900Z,60.20
2023-03-07T16:02:40.436Z,58.70
2023-03-07T16:05:24.043Z,61.00
2023-03-07T16:07:54.059Z,59.35
2023-03-07T16:10:22.465Z,57.10
2023-03-07T16:12:50.571Z,56.28
2023-03-07T16:15:19.831Z,56.45
2023-03-07T16:17:48.670Z,53.80
2023-03-07T16:20:17.157Z,53.72
2023-03-07T16:22:47.140Z,53.22
2023-03-07T16:25:16.778Z,52.20
2023-03-07T16:27:45.685Z,51.35
2023-03-07T16:30:15.717Z,51.10
2023-03-07T16:32:43.950Z,51.47
2023-03-07T16:35:15.878Z,50.03
2023-03-07T16:37:44.038Z,48.78
2023-03-07T16:40:13.228Z,49.03
2023-03-07T16:42:44.524Z,49.00
2023-03-07T16:45:19.556Z,47.83
2023-03-07T16:47:47.957Z,48.47
2023-03-07T16:50:17.100Z,46.65
2023-03-07T16:52:45.461Z,46.75
2023-03-07T16:55:14.397Z,45.45
2023-03-07T16:57:44.207Z,46.13
2023-03-07T17:00:17.328Z,45.97
2023-03-07T17:02:46.120Z,44.65
2023-03-07T17:05:18.215Z,45.15
2023-03-07T17:07:46.571Z,45.75
2023-03-07T17:10:15.011Z,43.30
2023-03-07T17:12:44.694Z,43.53
2023-03-07T17:15:14.150Z,42.58
2023-03-07T17:17:42.314Z,43.10
2023-03-07T17:20:13.824Z,42.50
2023-03-07T17:22:41.955Z,42.22
2023-03-07T17:25:10.031Z,41.60
2023-03-07T17:27:38.957Z,40.95
2023-03-07T17:30:09.257Z,40.90
2023-03-07T17:32:37.402Z,41.35
2023-03-07T17:35:08.147Z,40.47
2023-03-07T17:37:36.298Z,39.92
2023-03-07T17:40:10.060Z,39.47
2023-03-07T17:42:38.285Z,38.78
2023-03-07T17:45:08.877Z,38.33
2023-03-07T17:47:37.112Z,39.20
2023-03-07T17:50:06.337Z,38.25
2023-03-07T17:52:34.505Z,37.95
2023-03-07T17:55:02.669Z,37.97
2023-03-07T17:57:30.817Z,36.50
2023-03-07T17:59:58.948Z,36.63
2023-03-07T18:02:28.487Z,36.40
2023-03-07T18:04:56.612Z,36.70
2023-03-07T18:07:24.904Z,35.65
2023-03-07T18:10:05.801Z,35.55
2023-03-07T18:12:35.891Z,35.70
2023-03-07T18:15:05.229Z,35.75
2023-03-07T18:17:46.976Z,34.25
2023-03-07T18:20:15.941Z,34.90
2023-03-07T18:22:44.190Z,34.78
2023-03-07T18:25:13.826Z,35.35
2023-03-07T18:27:41.965Z,33.65
2023-03-07T18:30:11.927Z,33.28
2023-03-07T18:32:41.531Z,33.50
2023-03-07T18:35:10.296Z,33.05
2023-03-07T18:37:38.459Z,32.80
2023-03-07T18:40:07.847Z,32.35
2023-03-07T18:42:36.124Z,33.15
2023-03-07T18:45:04.329Z,31.88
2023-03-07T18:47:32.460Z,32.58
2023-03-07T18:50:01.984Z,30.08
2023-03-07T18:52:30.100Z,30.70
2023-03-07T18:54:58.222Z,29.75
2023-03-07T18:57:26.400Z,31.33
2023-03-07T18:59:54.603Z,30.63
2023-03-07T19:02:23.011Z,30.58
2023-03-07T19:04:51.442Z,29.27
2023-03-07T19:07:20.897Z,28.60
2023-03-07T19:09:53.317Z,29.58
2023-03-07T19:12:21.497Z,29.50
2023-03-07T19:14:49.600Z,27.92
2023-03-07T19:17:17.777Z,29.42
2023-03-07T19:19:46.939Z,30.35
2023-03-07T19:22:15.067Z,33.17
2023-03-07T19:24:44.834Z,33.95
2023-03-07T19:27:12.974Z,40.72
2023-03-07T19:29:41.044Z,37.30
2023-03-07T19:32:09.352Z,61.53
2023-03-07T19:34:37.496Z,50.67
2023-03-07T19:37:05.736Z,46.58
2023-03-07T19:39:34.218Z,48.75
2023-03-07T19:42:04.453Z,50.70
2023-03-07T19:44:32.568Z,52.15
2023-03-07T19:47:00.687Z,55.22
2023-03-07T19:49:28.787Z,55.42
2023-03-07T19:51:56.867Z,54.17
2023-03-07T19:54:24.997Z,56.13
2023-03-07T19:56:53.201Z,56.22
2023-03-07T19:59:25.363Z,61.05
2023-03-07T20:01:53.525Z,60.45
2023-03-07T20:04:21.662Z,65.22
2023-03-07T20:06:49.804Z,64.30
2023-03-07T20:09:18.431Z,67.03
2023-03-07T20:11:46.876Z,68.35
2023-03-07T20:14:15.163Z,71.13
2023-03-07T20:16:44.691Z,71.25
2023-03-07T20:19:12.821Z,73.43
2023-03-07T20:21:42.484Z,72.93
2023-03-07T20:24:10.592Z,73.32
2023-03-07T20:26:39.406Z,75.65
2023-03-07T20:29:07.839Z,76.53
2023-03-07T20:31:36.340Z,80.00
2023-03-07T20:34:05.904Z,79.22
2023-03-07T20:36:34.950Z,78.38
2023-03-07T20:39:04.178Z,80.13
2023-03-07T20:41:33.000Z,79.75
2023-03-07T20:44:02.452Z,78.22
2023-03-07T20:46:31.218Z,83.05
2023-03-07T20:48:59.912Z,80.82
2023-03-07T20:51:30.078Z,81.03
2023-03-07T20:53:58.900Z,81.32
2023-03-07T20:56:27.515Z,77.57
2023-03-07T20:58:55.942Z,78.20
2023-03-07T21:01:24.699Z,78.80
2023-03-07T21:03:53.888Z,78.30
2023-03-07T21:06:22.042Z,80.38
2023-03-07T21:08:51.572Z,77.80
2023-03-07T21:11:20.640Z,79.43
2023-03-07T21:13:49.442Z,77.60
2023-03-07T21:16:18.379Z,75.72
2023-03-07T21:18:46.495Z,74.63
2023-03-07T21:21:15.523Z,75.80
2023-03-07T21:23:43.689Z,74.85
2023-03-07T21:26:14.072Z,76.38
2023-03-07T21:28:42.263Z,74.05
2023-03-07T21:31:16.701Z,73.80
2023-03-07T21:33:45.623Z,73.60
2023-03-07T21:36:14.561Z,70.70
2023-03-07T21:38:42.859Z,71.60
2023-03-07T21:41:12.449Z,69.60
2023-03-07T21:43:40.552Z,70.85
2023-03-07T21:46:09.379Z,69.63
2023-03-07T21:48:37.562Z,68.47
2023-03-07T21:51:05.969Z,67.05
2023-03-07T21:53:34.052Z,68.32
2023-03-07T21:56:02.966Z,66.68
2023-03-07T21:58:32.608Z,65.68
2023-03-07T22:01:00.772Z,63.28
2023-03-07T22:03:29.342Z,63.90
2023-03-07T22:05:57.625Z,64.15
2023-03-07T22:08:25.712Z,62.42
2023-03-07T22:10:57.461Z,62.22
2023-03-07T22:13:25.561Z,61.70
2023-03-07T22:15:58.402Z,60.67
2023-03-07T22:18:26.602Z,61.97
2023-03-07T22:20:55.195Z,59.58
2023-03-07T22:23:23.430Z,58.88
2023-03-07T22:25:51.493Z,58.00
2023-03-07T22:28:19.663Z,59.20
2023-03-07T22:30:49.318Z,56.08
2023-03-07T22:33:18.911Z,59.13
2023-03-07T22:35:58.091Z,56.17
2023-03-07T22:38:26.399Z,55.25
2023-03-07T22:40:54.485Z,54.63
2023-03-07T22:43:22.617Z,54.17
2023-03-07T22:45:52.051Z,54.70
2023-03-07T22:48:21.554Z,52.78
2023-03-07T22:50:49.633Z,52.97
2023-03-07T22:53:17.741Z,53.22
2023-03-07T22:55:45.832Z,53.50
2023-03-07T22:58:13.997Z,50.47
2023-03-07T23:00:42.788Z,49.53
2023-03-07T23:03:11.048Z,51.28
2023-03-07T23:05:40.541Z,50.25
2023-03-07T23:08:08.659Z,49.90
2023-03-07T23:10:36.750Z,49.63
2023-03-07T23:13:04.901Z,49.10
2023-03-07T23:15:33.086Z,48.63
2023-03-07T23:18:01.255Z,47.85
2023-03-07T23:20:30.270Z,47.40
2023-03-07T23:22:59.732Z,47.33
2023-03-07T23:25:27.789Z,47.30
2023-03-07T23:27:56.082Z,44.63
2023-03-07T23:30:24.706Z,44.58
2023-03-07T23:32:52.782Z,46.08
2023-03-07T23:35:20.889Z,44.45
2023-03-07T23:37:49.060Z,44.22
2023-03-07T23:40:18.754Z,44.05
2023-03-07T23:42:46.874Z,43.22
2023-03-07T23:45:14.998Z,42.47
2023-03-07T23:47:43.147Z,41.08
2023-03-07T23:50:12.398Z,41.78
2023-03-07T23:52:40.503Z,41.53
2023-03-07T23:55:09.599Z,40.67
2023-03-07T23:57:39.315Z,40.70
